| time (UTC) | temp C | wind direction | speed KPH | gust KPH | rain 1hr cm | rain 24hr cm | rain mn cm | humidity % | barometer mb |
| 20260507094032 | 9 | 335 | 1.6 | 3.2 | 0.10 | 0.84 | 0.64 | 95 | 1007.8 |
| 20260507093017 | 9 | 243 | 3.2 | 3.2 | 0.15 | 0.79 | 0.58 | 95 | 1007.8 |
| 20260507092016 | 9 | 313 | 1.6 | 6.4 | 0.20 | 0.79 | 0.58 | 95 | 1007.3 |
| 20260507091016 | 9 | 210 | 1.6 | 4.8 | 0.20 | 0.76 | 0.56 | 95 | 1007.7 |
| 20260507090016 | 9 | 300 | 0.0 | 1.6 | 0.23 | 0.74 | 0.53 | 96 | 1007.5 |
| 20260507085032 | 9 | 252 | 0.0 | 1.6 | 0.28 | 0.74 | 0.53 | 95 | 1007.4 |
| 20260507084052 | 9 | 348 | 1.6 | 4.8 | 0.30 | 0.74 | 0.53 | 95 | 1007.4 |
| 20260507083018 | 10 | 339 | 1.6 | 4.8 | 0.25 | 0.66 | 0.46 | 95 | 1007.6 |
| 20260507082053 | 10 | 335 | 1.6 | 4.8 | 0.25 | 0.61 | 0.41 | 94 | 1007.5 |
| 20260507081018 | 10 | 346 | 3.2 | 3.2 | 0.28 | 0.56 | 0.36 | 94 | 1007.6 |
| 20260507080018 | 10 | 343 | 1.6 | 3.2 | 0.30 | 0.51 | 0.30 | 94 | 1007.7 |
| 20260507075018 | 10 | 7 | 1.6 | 4.8 | 0.25 | 0.46 | 0.25 | 94 | 1007.8 |
| 20260507074018 | 10 | 269 | 1.6 | 3.2 | 0.20 | 0.43 | 0.23 | 93 | 1008.2 |
| 20260507073020 | 10 | 314 | 1.6 | 3.2 | 0.20 | 0.41 | 0.20 | 92 | 1007.7 |
| 20260507072039 | 11 | 319 | 1.6 | 3.2 | 0.13 | 0.36 | 0.15 | 90 | 1008.0 |
| 20260507071019 | 11 | 356 | 3.2 | 6.4 | 0.05 | 0.28 | 0.08 | 87 | 1007.0 |
| 20260507070019 | 11 | 358 | 3.2 | 6.4 | 0.00 | 0.20 | 0.00 | 88 | 1006.6 |
| 20260507065019 | 11 | 322 | 1.6 | 3.2 | 0.00 | 0.20 | 0.00 | 92 | 1006.4 |
| 20260507064039 | 12 | 337 | 1.6 | 4.8 | 0.00 | 0.20 | 0.00 | 91 | 1006.7 |
| 20260507063020 | 12 | 315 | 1.6 | 4.8 | 0.00 | 0.20 | 0.00 | 91 | 1007.0 |
| 20260507062040 | 12 | 329 | 1.6 | 3.2 | 0.00 | 0.20 | 0.00 | 90 | 1006.9 |
| 20260507061020 | 12 | 339 | 3.2 | 4.8 | 0.00 | 0.20 | 0.00 | 90 | 1006.8 |
| 20260507060019 | 12 | 356 | 3.2 | 6.4 | 0.00 | 0.20 | 0.00 | 91 | 1006.9 |
| 20260507055019 | 12 | 304 | 1.6 | 3.2 | 0.00 | 0.20 | 0.00 | 91 | 1007.0 |
| 20260507054020 | 12 | 276 | 1.6 | 6.4 | 0.00 | 0.20 | 0.00 | 90 | 1007.1 |
| 20260507053020 | 13 | 317 | 3.2 | 8.0 | 0.00 | 0.20 | 0.00 | 92 | 1007.0 |
| 20260507052020 | 13 | 274 | 1.6 | 4.8 | 0.00 | 0.20 | 0.00 | 93 | 1007.3 |
| 20260507051021 | 13 | 303 | 1.6 | 4.8 | 0.00 | 0.20 | 0.00 | 93 | 1007.2 |
| 20260507050021 | 13 | 228 | 1.6 | 3.2 | 0.00 | 0.20 | 0.00 | 93 | 1007.1 |
| 20260507045021 | 13 | 292 | 1.6 | 6.4 | 0.00 | 0.20 | 0.00 | 92 | 1007.1 |
| 20260507044021 | 13 | 326 | 1.6 | 3.2 | 0.00 | 0.20 | 0.00 | 92 | 1007.1 |
| 20260507043022 | 13 | 291 | 1.6 | 3.2 | 0.00 | 0.20 | 0.00 | 91 | 1007.0 |
| 20260507042022 | 13 | 318 | 0.0 | 4.8 | 0.00 | 0.20 | 0.00 | 92 | 1007.1 |
| 20260507041021 | 14 | 292 | 1.6 | 4.8 | 0.00 | 0.20 | 0.00 | 93 | 1006.9 |
| 20260507040042 | 14 | 285 | 3.2 | 6.4 | 0.00 | 0.20 | 0.00 | 95 | 1007.0 |
| 20260507035022 | 14 | 273 | 1.6 | 6.4 | 0.00 | 0.20 | 0.00 | 95 | 1006.9 |
| 20260507034023 | 14 | 264 | 1.6 | 4.8 | 0.00 | 0.20 | 0.00 | 95 | 1006.9 |
| 20260507033023 | 14 | 295 | 1.6 | 4.8 | 0.00 | 0.20 | 0.00 | 95 | 1006.9 |
| 20260507032023 | 14 | 307 | 3.2 | 6.4 | 0.00 | 0.20 | 0.00 | 95 | 1007.0 |
| 20260507031023 | 14 | 226 | 1.6 | 4.8 | 0.00 | 0.20 | 0.00 | 95 | 1006.7 |
| 20260507030020 | 14 | 247 | 3.2 | 9.7 | 0.00 | 0.20 | 0.00 | 95 | 1006.7 |
| 20260507025023 | 14 | 233 | 3.2 | 6.4 | 0.00 | 0.20 | 0.00 | 95 | 1006.8 |
| 20260507024023 | 14 | 238 | 1.6 | 4.8 | 0.00 | 0.20 | 0.00 | 95 | 1006.7 |
| 20260507023023 | 14 | 243 | 3.2 | 6.4 | 0.00 | 0.20 | 0.00 | 95 | 1006.7 |
| 20260507022024 | 14 | 215 | 1.6 | 4.8 | 0.00 | 0.20 | 0.00 | 95 | 1006.7 |
| 20260507021021 | 14 | 347 | 1.6 | 8.0 | 0.00 | 0.20 | 0.00 | 95 | 1006.7 |
| 20260507020101 | 14 | 297 | 3.2 | 9.7 | 0.00 | 0.20 | 0.00 | 95 | 1006.8 |
| 20260507015024 | 14 | 271 | 1.6 | 4.8 | 0.00 | 0.20 | 0.00 | 95 | 1006.7 |
| 20260507014023 | 14 | 308 | 1.6 | 4.8 | 0.00 | 0.20 | 0.00 | 96 | 1006.7 |
| 20260507013024 | 13 | 249 | 3.2 | 4.8 | 0.00 | 0.20 | 0.00 | 96 | 1006.7 |
| 20260507012025 | 13 | 253 | 1.6 | 3.2 | 0.00 | 0.20 | 0.00 | 96 | 1006.7 |
| 20260507011025 | 13 | 236 | 1.6 | 6.4 | 0.00 | 0.20 | 0.00 | 96 | 1007.0 |
| 20260507010024 | 13 | 210 | 3.2 | 8.0 | 0.00 | 0.20 | 0.00 | 96 | 1007.1 |
| 20260507005022 | 13 | 347 | 3.2 | 8.0 | 0.00 | 0.20 | 0.00 | 96 | 1007.1 |
| 20260507004025 | 13 | 261 | 1.6 | 4.8 | 0.00 | 0.20 | 0.00 | 96 | 1007.1 |
| 20260507003024 | 13 | 250 | 1.6 | 4.8 | 0.00 | 0.20 | 0.00 | 96 | 1007.1 |
| 20260507002045 | 13 | 273 | 1.6 | 3.2 | 0.00 | 0.20 | 0.00 | 95 | 1007.1 |
| 20260507001046 | 13 | 322 | 1.6 | 3.2 | 0.00 | 0.20 | 0.00 | 95 | 1006.9 |
| 20260507000045 | 13 | 245 | 3.2 | 4.8 | 0.00 | 0.20 | 0.00 | 95 | 1006.9 |
| 20260506235101 | 13 | 236 | 3.2 | 4.8 | 0.00 | 0.20 | 0.20 | 95 | 1006.9 |
| 20260506234026 | 13 | 236 | 3.2 | 4.8 | 0.00 | 0.20 | 0.20 | 95 | 1006.8 |
| 20260506233026 | 13 | 244 | 3.2 | 4.8 | 0.00 | 0.20 | 0.20 | 95 | 1006.7 |
| 20260506232026 | 14 | 256 | 3.2 | 4.8 | 0.00 | 0.20 | 0.20 | 95 | 1006.7 |
| 20260506231026 | 14 | 234 | 1.6 | 3.2 | 0.00 | 0.20 | 0.20 | 94 | 1006.7 |
| 20260506230026 | 14 | 225 | 1.6 | 3.2 | 0.00 | 0.20 | 0.20 | 94 | 1006.7 |
| 20260506225047 | 14 | 309 | 1.6 | 4.8 | 0.00 | 0.20 | 0.20 | 94 | 1006.7 |
| 20260506224026 | 14 | 206 | 1.6 | 6.4 | 0.00 | 0.20 | 0.20 | 94 | 1006.7 |
| 20260506223107 | 14 | 255 | 3.2 | 8.0 | 0.00 | 0.20 | 0.20 | 95 | 1006.6 |
| 20260506222027 | 14 | 299 | 3.2 | 4.8 | 0.00 | 0.20 | 0.20 | 95 | 1006.6 |
| 20260506221048 | 14 | 346 | 3.2 | 6.4 | 0.00 | 0.20 | 0.20 | 95 | 1006.6 |
| 20260506220018 | 14 | 239 | 1.6 | 8.0 | 0.00 | 0.20 | 0.20 | 95 | 1006.8 |
| 20260506215019 | 15 | 231 | 3.2 | 8.0 | 0.00 | 0.20 | 0.20 | 95 | 1007.0 |
| 20260506214019 | 15 | 229 | 1.6 | 11.3 | 0.00 | 0.20 | 0.20 | 95 | 1007.0 |
| 20260506213016 | 15 | 229 | 1.6 | 4.8 | 0.00 | 0.20 | 0.20 | 94 | 1007.1 |
| 20260506212016 | 15 | 224 | 3.2 | 8.0 | 0.00 | 0.20 | 0.20 | 93 | 1007.2 |
| 20260506211020 | 15 | 214 | 3.2 | 6.4 | 0.00 | 0.20 | 0.20 | 93 | 1007.4 |
| 20260506210020 | 15 | 220 | 1.6 | 6.4 | 0.00 | 0.20 | 0.20 | 93 | 1007.5 |
| 20260506205017 | 15 | 210 | 3.2 | 9.7 | 0.00 | 0.20 | 0.20 | 93 | 1007.5 |
| 20260506204017 | 15 | 242 | 1.6 | 6.4 | 0.00 | 0.20 | 0.20 | 93 | 1007.5 |
| 20260506203018 | 15 | 210 | 3.2 | 9.7 | 0.03 | 0.20 | 0.20 | 93 | 1007.6 |
| 20260506202017 | 15 | 203 | 3.2 | 9.7 | 0.05 | 0.20 | 0.20 | 94 | 1007.6 |
| 20260506201100 | 15 | 234 | 1.6 | 4.8 | 0.08 | 0.20 | 0.20 | 94 | 1007.6 |
| 20260506200017 | 15 | 207 | 3.2 | 8.0 | 0.10 | 0.18 | 0.18 | 93 | 1007.9 |
| 20260506195038 | 15 | 205 | 3.2 | 6.4 | 0.13 | 0.18 | 0.18 | 93 | 1007.9 |
| 20260506194018 | 15 | 248 | 3.2 | 11.3 | 0.13 | 0.18 | 0.18 | 92 | 1007.9 |
| 20260506193018 | 15 | 215 | 3.2 | 8.0 | 0.15 | 0.18 | 0.18 | 91 | 1007.9 |
| 20260506192038 | 15 | 221 | 3.2 | 8.0 | 0.13 | 0.13 | 0.13 | 90 | 1008.0 |
| 20260506191018 | 15 | 199 | 1.6 | 6.4 | 0.10 | 0.10 | 0.10 | 88 | 1008.1 |
| 20260506190019 | 15 | 207 | 4.8 | 8.0 | 0.08 | 0.08 | 0.08 | 88 | 1008.2 |
| 20260506185018 | 16 | 251 | 1.6 | 8.0 | 0.08 | 0.08 | 0.08 | 86 | 1008.4 |
| 20260506184018 | 16 | 208 | 3.2 | 8.0 | 0.05 | 0.05 | 0.05 | 82 | 1008.5 |
| 20260506183019 | 17 | 224 | 3.2 | 9.7 | 0.03 | 0.03 | 0.03 | 77 | 1008.6 |
| 20260506182019 | 17 | 211 | 3.2 | 9.7 | 0.00 | 0.00 | 0.00 | 75 | 1008.7 |
| 20260506181016 | 18 | 219 | 3.2 | 8.0 | 0.00 | 0.00 | 0.00 | 71 | 1008.8 |
| 20260506180016 | 18 | 231 | 3.2 | 9.7 | 0.00 | 0.00 | 0.00 | 69 | 1008.8 |
| 20260506175016 | 19 | 275 | 3.2 | 11.3 | 0.00 | 0.00 | 0.00 | 68 | 1008.8 |
| 20260506174020 | 20 | 207 | 4.8 | 9.7 | 0.00 | 0.00 | 0.00 | 66 | 1008.9 |
| 20260506173020 | 20 | 221 | 4.8 | 9.7 | 0.00 | 0.00 | 0.00 | 65 | 1008.9 |
| 20260506172017 | 20 | 224 | 3.2 | 12.9 | 0.00 | 0.00 | 0.00 | 63 | 1009.0 |
| 20260506171018 | 20 | 211 | 4.8 | 12.9 | 0.00 | 0.00 | 0.00 | 63 | 1008.9 |
| 20260506170038 | 20 | 227 | 3.2 | 11.3 | 0.00 | 0.00 | 0.00 | 65 | 1009.0 |
| 20260506165017 | 21 | 218 | 4.8 | 14.5 | 0.00 | 0.00 | 0.00 | 64 | 1009.0 |
| 20260506164016 | 20 | 224 | 4.8 | 14.5 | 0.00 | 0.00 | 0.00 | 64 | 1009.1 |
| 20260506163036 | 20 | 205 | 3.2 | 9.7 | 0.00 | 0.00 | 0.00 | 64 | 1009.3 |
| 20260506162018 | 20 | 216 | 4.8 | 16.1 | 0.00 | 0.00 | 0.00 | 63 | 1009.5 |
| 20260506161018 | 20 | 111 | 3.2 | 11.3 | 0.00 | 0.00 | 0.00 | 64 | 1009.5 |
| 20260506160019 | 20 | 228 | 4.8 | 12.9 | 0.00 | 0.00 | 0.00 | 64 | 1009.7 |
| 20260506155017 | 21 | 247 | 4.8 | 9.7 | 0.00 | 0.00 | 0.00 | 62 | 1009.7 |
| 20260506154017 | 21 | 217 | 3.2 | 11.3 | 0.00 | 0.00 | 0.00 | 63 | 1009.9 |
| 20260506153017 | 21 | 221 | 4.8 | 12.9 | 0.00 | 0.00 | 0.00 | 62 | 1009.9 |
| 20260506152016 | 21 | 227 | 4.8 | 16.1 | 0.00 | 0.00 | 0.00 | 63 | 1010.0 |
| 20260506151017 | 20 | 225 | 4.8 | 9.7 | 0.00 | 0.00 | 0.00 | 65 | 1010.1 |
| 20260506150020 | 20 | 222 | 4.8 | 11.3 | 0.00 | 0.00 | 0.00 | 66 | 1010.2 |
| 20260506145018 | 19 | 193 | 3.2 | 6.4 | 0.00 | 0.00 | 0.00 | 67 | 1010.3 |
| 20260506144059 | 19 | 224 | 3.2 | 6.4 | 0.00 | 0.00 | 0.00 | 67 | 1010.3 |
| 20260506143018 | 19 | 197 | 1.6 | 4.8 | 0.00 | 0.00 | 0.00 | 67 | 1010.2 |
| 20260506142019 | 19 | 215 | 3.2 | 8.0 | 0.00 | 0.00 | 0.00 | 68 | 1010.2 |
| 20260506141018 | 19 | 201 | 3.2 | 6.4 | 0.00 | 0.00 | 0.00 | 68 | 1010.1 |
| 20260506140018 | 19 | 205 | 3.2 | 4.8 | 0.00 | 0.00 | 0.00 | 69 | 1010.2 |
| 20260506135019 | 18 | 230 | 3.2 | 9.7 | 0.00 | 0.00 | 0.00 | 69 | 1010.1 |
| 20260506134039 | 18 | 215 | 4.8 | 9.7 | 0.00 | 0.00 | 0.00 | 70 | 1010.1 |
| 20260506133100 | 18 | 241 | 1.6 | 6.4 | 0.00 | 0.00 | 0.00 | 72 | 1010.3 |
| 20260506132020 | 17 | 231 | 3.2 | 8.0 | 0.00 | 0.00 | 0.00 | 74 | 1010.6 |
| 20260506131019 | 17 | 209 | 3.2 | 8.0 | 0.00 | 0.00 | 0.00 | 75 | 1010.7 |
| 20260506130018 | 17 | 229 | 3.2 | 17.7 | 0.00 | 0.00 | 0.00 | 76 | 1010.7 |
| 20260506125019 | 17 | 202 | 4.8 | 8.0 | 0.00 | 0.00 | 0.00 | 77 | 1010.6 |
| 20260506124020 | 16 | 223 | 3.2 | 4.8 | 0.00 | 0.00 | 0.00 | 78 | 1010.6 |
| 20260506123020 | 16 | 220 | 3.2 | 6.4 | 0.00 | 0.00 | 0.00 | 79 | 1010.6 |
| 20260506122020 | 16 | 208 | 3.2 | 6.4 | 0.00 | 0.00 | 0.00 | 80 | 1010.6 |
| 20260506121021 | 16 | 220 | 3.2 | 4.8 | 0.00 | 0.00 | 0.00 | 80 | 1010.6 |
| 20260506120020 | 15 | 220 | 4.8 | 6.4 | 0.00 | 0.00 | 0.00 | 81 | 1010.6 |
| 20260506115021 | 15 | 218 | 3.2 | 8.0 | 0.00 | 0.00 | 0.00 | 82 | 1010.8 |
| 20260506114041 | 15 | 235 | 3.2 | 9.7 | 0.00 | 0.00 | 0.00 | 84 | 1010.9 |
| 20260506113016 | 15 | 220 | 3.2 | 6.4 | 0.00 | 0.00 | 0.00 | 84 | 1010.9 |
| 20260506112022 | 15 | 215 | 4.8 | 14.5 | 0.00 | 0.00 | 0.00 | 84 | 1011.0 |
| 20260506111017 | 15 | 244 | 3.2 | 9.7 | 0.00 | 0.00 | 0.00 | 84 | 1010.9 |
| 20260506110022 | 14 | 240 | 4.8 | 6.4 | 0.00 | 0.00 | 0.00 | 85 | 1010.8 |
| 20260506105041 | 14 | 212 | 3.2 | 4.8 | 0.00 | 0.00 | 0.00 | 85 | 1010.9 |
| 20260506104022 | 14 | 259 | 3.2 | 11.3 | 0.00 | 0.00 | 0.00 | 85 | 1010.8 |
| 20260506103022 | 14 | 238 | 3.2 | 6.4 | 0.00 | 0.00 | 0.00 | 85 | 1010.8 |
| 20260506102023 | 14 | 250 | 3.2 | 8.0 | 0.00 | 0.00 | 0.00 | 85 | 1010.7 |
| 20260506101042 | 14 | 233 | 3.2 | 6.4 | 0.00 | 0.00 | 0.00 | 85 | 1010.8 |
| 20260506100022 | 14 | 221 | 1.6 | 4.8 | 0.00 | 0.00 | 0.00 | 85 | 1010.7 |
| 20260506095022 | 14 | 203 | 3.2 | 6.4 | 0.00 | 0.00 | 0.00 | 85 | 1010.6 |